QTR77 OEDF-HEBA
Flight info
| Callsign | QTR77 |
|---|---|
| Flight time | N/A |
| Altitude | 40000 |
| Route | TAYMA2G TAYMA N697 ANTER DCT ALKIR H999 NALBU N697 KITOT DCT NOVPA N697 MENLI DCT |
| Aircraft | A332/H-SDE3GHIJ2J3J5M1RVWXY/LB2D1 |
Departure
| Time | 2026-04-28 11:35 |
|---|---|
| Airport | King Fahd International Airport (OEDF) |
Arrival
| Time | N/A |
|---|---|
| Airport | HEBA |
| Time | Latitude | Longitude | Altitude | Speed | Heading |
|---|---|---|---|---|---|
| 2026-04-28 11:31 | 26.47992 | 49.78990 | 84 ft | 0 kts | 74° |
| 2026-04-28 11:32 | 26.47986 | 49.78967 | 70 ft | 0 kts | 255° |
| 2026-04-28 11:32 | 26.48878 | 49.78255 | 78 ft | 0 kts | 239° |
| 2026-04-28 11:33 | 26.48876 | 49.78252 | 78 ft | 1 kts | 239° |
| 2026-04-28 11:33 | 26.48868 | 49.78237 | 72 ft | 3 kts | 238° |
| 2026-04-28 11:33 | 26.48850 | 49.78215 | 80 ft | 5 kts | 222° |
| 2026-04-28 11:33 | 26.48818 | 49.78187 | 83 ft | 7 kts | 216° |
| 2026-04-28 11:34 | 26.48764 | 49.78172 | 85 ft | 9 kts | 176° |
| 2026-04-28 11:34 | 26.48637 | 49.78205 | 67 ft | 36 kts | 164° |
| 2026-04-28 11:34 | 26.48101 | 49.78378 | 67 ft | 126 kts | 164° |
| 2026-04-28 11:34 | 26.46983 | 49.78706 | 291 ft | 196 kts | 165° |
| 2026-04-28 11:35 | 26.45583 | 49.79129 | 1377 ft | 217 kts | 165° |
| 2026-04-28 11:35 | 26.44060 | 49.79603 | 2600 ft | 234 kts | 166° |
| 2026-04-28 11:35 | 26.42487 | 49.80098 | 3447 ft | 240 kts | 167° |
| 2026-04-28 11:35 | 26.40863 | 49.80609 | 4339 ft | 244 kts | 167° |
| 2026-04-28 11:36 | 26.39209 | 49.81126 | 5165 ft | 248 kts | 167° |
| 2026-04-28 11:36 | 26.37488 | 49.81643 | 5743 ft | 266 kts | 170° |
| 2026-04-28 11:36 | 26.35630 | 49.81661 | 5979 ft | 271 kts | 197° |
| 2026-04-28 11:36 | 26.34049 | 49.80597 | 6000 ft | 267 kts | 230° |
| 2026-04-28 11:37 | 26.33301 | 49.78751 | 5983 ft | 265 kts | 263° |
| 2026-04-28 11:37 | 26.33424 | 49.76687 | 6014 ft | 269 kts | 278° |
| 2026-04-28 11:37 | 26.33786 | 49.74620 | 6392 ft | 274 kts | 280° |
| 2026-04-28 11:37 | 26.34027 | 49.72507 | 7216 ft | 274 kts | 264° |
| 2026-04-28 11:38 | 26.33611 | 49.70453 | 8228 ft | 271 kts | 251° |
| 2026-04-28 11:38 | 26.32965 | 49.68481 | 9270 ft | 271 kts | 248° |
| 2026-04-28 11:38 | 26.32285 | 49.66540 | 10237 ft | 275 kts | 248° |
| 2026-04-28 11:38 | 26.31626 | 49.64464 | 10744 ft | 296 kts | 254° |
| 2026-04-28 11:39 | 26.31412 | 49.62101 | 11204 ft | 318 kts | 272° |
| 2026-04-28 11:39 | 26.31949 | 49.59667 | 11980 ft | 330 kts | 290° |
| 2026-04-28 11:39 | 26.33018 | 49.57379 | 12861 ft | 336 kts | 296° |
| 2026-04-28 11:39 | 26.34230 | 49.55119 | 13751 ft | 341 kts | 297° |
| 2026-04-28 11:40 | 26.35465 | 49.52843 | 14590 ft | 343 kts | 297° |
| 2026-04-28 11:40 | 26.36693 | 49.50549 | 15461 ft | 345 kts | 296° |
| 2026-04-28 11:40 | 26.37909 | 49.48244 | 16331 ft | 346 kts | 296° |
| 2026-04-28 11:40 | 26.39122 | 49.45924 | 17198 ft | 347 kts | 296° |
| 2026-04-28 11:41 | 26.40318 | 49.43621 | 18016 ft | 350 kts | 296° |
| 2026-04-28 11:41 | 26.41549 | 49.41237 | 18517 ft | 359 kts | 296° |
| 2026-04-28 11:41 | 26.42801 | 49.38808 | 19153 ft | 362 kts | 295° |
| 2026-04-28 11:41 | 26.44063 | 49.36364 | 19874 ft | 363 kts | 295° |
| 2026-04-28 11:42 | 26.45327 | 49.33912 | 20566 ft | 365 kts | 295° |
| 2026-04-28 11:42 | 26.46599 | 49.31444 | 21249 ft | 367 kts | 295° |
| 2026-04-28 11:42 | 26.47874 | 49.28967 | 21964 ft | 368 kts | 294° |
| 2026-04-28 11:42 | 26.49150 | 49.26492 | 22702 ft | 369 kts | 294° |
| 2026-04-28 11:43 | 26.50423 | 49.23985 | 23346 ft | 371 kts | 293° |
| 2026-04-28 11:43 | 26.51673 | 49.21451 | 23846 ft | 374 kts | 293° |
| 2026-04-28 11:43 | 26.52911 | 49.18924 | 24318 ft | 377 kts | 292° |
| 2026-04-28 11:43 | 26.54178 | 49.16336 | 24795 ft | 382 kts | 292° |
| 2026-04-28 11:44 | 26.55466 | 49.13703 | 25146 ft | 388 kts | 292° |
| 2026-04-28 11:44 | 26.56769 | 49.11047 | 25633 ft | 391 kts | 292° |
| 2026-04-28 11:44 | 26.58077 | 49.08382 | 26154 ft | 392 kts | 292° |
| 2026-04-28 11:44 | 26.59391 | 49.05702 | 26697 ft | 392 kts | 292° |
| 2026-04-28 11:45 | 26.60707 | 49.03016 | 27188 ft | 395 kts | 291° |
| 2026-04-28 11:45 | 26.62031 | 49.00311 | 27654 ft | 398 kts | 291° |
| 2026-04-28 11:45 | 26.63349 | 48.97622 | 28112 ft | 400 kts | 291° |
| 2026-04-28 11:45 | 26.64694 | 48.94877 | 28587 ft | 403 kts | 291° |
| 2026-04-28 11:46 | 26.66044 | 48.92122 | 29051 ft | 405 kts | 291° |
| 2026-04-28 11:46 | 26.67402 | 48.89347 | 29507 ft | 408 kts | 291° |
| 2026-04-28 11:46 | 26.68310 | 48.87492 | 29854 ft | 408 kts | 291° |
| 2026-04-28 11:46 | 26.70115 | 48.83805 | 30457 ft | 408 kts | 291° |
| 2026-04-28 11:47 | 26.71478 | 48.81017 | 30893 ft | 409 kts | 291° |
| 2026-04-28 11:47 | 26.72842 | 48.78224 | 31301 ft | 410 kts | 291° |
| 2026-04-28 11:47 | 26.73765 | 48.76331 | 31598 ft | 410 kts | 291° |
| 2026-04-28 11:47 | 26.75024 | 48.73490 | 32072 ft | 404 kts | 286° |
| 2026-04-28 11:48 | 26.75919 | 48.70591 | 32693 ft | 393 kts | 279° |
| 2026-04-28 11:48 | 26.76414 | 48.67632 | 33367 ft | 382 kts | 272° |
| 2026-04-28 11:48 | 26.76537 | 48.64692 | 33965 ft | 375 kts | 267° |
| 2026-04-28 11:48 | 26.76513 | 48.61775 | 34312 ft | 375 kts | 266° |
| 2026-04-28 11:49 | 26.76427 | 48.58854 | 34567 ft | 377 kts | 265° |
| 2026-04-28 11:49 | 26.76316 | 48.55913 | 34851 ft | 378 kts | 265° |
| 2026-04-28 11:49 | 26.76202 | 48.52969 | 35166 ft | 379 kts | 265° |
| 2026-04-28 11:49 | 26.76094 | 48.50018 | 35497 ft | 379 kts | 265° |
| 2026-04-28 11:50 | 26.75996 | 48.47061 | 35827 ft | 380 kts | 265° |
| 2026-04-28 11:50 | 26.75905 | 48.44103 | 36154 ft | 380 kts | 265° |
| 2026-04-28 11:50 | 26.75822 | 48.41178 | 36485 ft | 380 kts | 265° |
| 2026-04-28 11:50 | 26.75740 | 48.38215 | 36803 ft | 381 kts | 265° |
| 2026-04-28 11:51 | 26.75659 | 48.35251 | 37136 ft | 381 kts | 265° |
| 2026-04-28 11:51 | 26.75578 | 48.32280 | 37457 ft | 382 kts | 265° |
| 2026-04-28 11:51 | 26.75496 | 48.29311 | 37783 ft | 382 kts | 265° |
| 2026-04-28 11:51 | 26.75413 | 48.26339 | 38099 ft | 382 kts | 265° |
| 2026-04-28 11:52 | 26.75329 | 48.23366 | 38411 ft | 382 kts | 265° |
| 2026-04-28 11:52 | 26.75245 | 48.20393 | 38688 ft | 382 kts | 265° |
| 2026-04-28 11:52 | 26.75159 | 48.17403 | 38825 ft | 386 kts | 265° |
| 2026-04-28 11:52 | 26.75070 | 48.14385 | 38936 ft | 389 kts | 265° |
| 2026-04-28 11:53 | 26.74983 | 48.11385 | 39419 ft | 380 kts | 265° |
| 2026-04-28 11:53 | 26.74900 | 48.08466 | 39742 ft | 374 kts | 265° |
| 2026-04-28 11:53 | 26.74723 | 48.02607 | 39835 ft | 385 kts | 265° |
| 2026-04-28 11:54 | 26.74536 | 47.96529 | 39838 ft | 393 kts | 265° |
| 2026-04-28 11:54 | 26.74350 | 47.90411 | 39839 ft | 393 kts | 265° |
| 2026-04-28 11:55 | 26.74451 | 47.84289 | 39839 ft | 394 kts | 269° |
| 2026-04-28 11:55 | 26.74714 | 47.78163 | 39849 ft | 394 kts | 270° |
| 2026-04-28 11:56 | 26.75023 | 47.72066 | 39843 ft | 394 kts | 270° |
| 2026-04-28 11:56 | 26.75340 | 47.65931 | 39838 ft | 394 kts | 270° |
| 2026-04-28 11:57 | 26.75648 | 47.59806 | 39835 ft | 394 kts | 270° |
| 2026-04-28 11:57 | 26.75950 | 47.53672 | 39837 ft | 394 kts | 269° |
| 2026-04-28 11:58 | 26.76246 | 47.47580 | 39840 ft | 394 kts | 269° |
| 2026-04-28 11:58 | 26.76541 | 47.41450 | 39844 ft | 394 kts | 269° |
| 2026-04-28 11:59 | 26.77086 | 47.35319 | 39835 ft | 397 kts | 274° |
| 2026-04-28 11:59 | 26.77961 | 47.29220 | 39862 ft | 398 kts | 275° |
| 2026-04-28 12:00 | 26.78910 | 47.23129 | 39840 ft | 396 kts | 275° |
| 2026-04-28 12:00 | 26.79850 | 47.17079 | 39831 ft | 393 kts | 275° |
| 2026-04-28 12:01 | 26.80757 | 47.11055 | 39884 ft | 395 kts | 275° |
| 2026-04-28 12:01 | 26.81653 | 47.04973 | 39852 ft | 393 kts | 275° |
| 2026-04-28 12:02 | 26.82553 | 46.98942 | 39842 ft | 394 kts | 275° |
| 2026-04-28 12:02 | 26.83475 | 46.92871 | 39846 ft | 396 kts | 275° |
| 2026-04-28 12:03 | 26.84405 | 46.86792 | 39859 ft | 396 kts | 275° |
| 2026-04-28 12:03 | 26.85333 | 46.80725 | 39846 ft | 394 kts | 275° |
| 2026-04-28 12:04 | 26.86247 | 46.74725 | 39846 ft | 393 kts | 275° |
| 2026-04-28 12:04 | 26.87163 | 46.68682 | 39848 ft | 393 kts | 275° |
| 2026-04-28 12:05 | 26.88076 | 46.62641 | 39851 ft | 393 kts | 275° |
| 2026-04-28 12:05 | 26.88987 | 46.56603 | 39856 ft | 393 kts | 275° |
| 2026-04-28 12:06 | 26.89895 | 46.50558 | 39853 ft | 393 kts | 275° |
| 2026-04-28 12:06 | 26.90801 | 46.44508 | 39866 ft | 393 kts | 275° |
| 2026-04-28 12:07 | 26.91702 | 46.38477 | 39871 ft | 391 kts | 275° |
| 2026-04-28 12:07 | 26.92590 | 46.32499 | 39862 ft | 391 kts | 275° |
| 2026-04-28 12:08 | 26.93481 | 46.26475 | 39873 ft | 391 kts | 275° |
| 2026-04-28 12:08 | 26.94367 | 46.20465 | 39867 ft | 391 kts | 275° |
| 2026-04-28 12:09 | 26.95250 | 46.14456 | 39868 ft | 391 kts | 275° |
| 2026-04-28 12:09 | 26.96128 | 46.08466 | 39870 ft | 391 kts | 275° |
| 2026-04-28 12:10 | 26.97008 | 46.02445 | 39873 ft | 391 kts | 275° |
| 2026-04-28 12:10 | 26.97885 | 45.96434 | 39865 ft | 389 kts | 275° |
| 2026-04-28 12:11 | 26.98749 | 45.90488 | 39867 ft | 388 kts | 275° |
| 2026-04-28 12:11 | 26.99616 | 45.84501 | 39870 ft | 388 kts | 275° |
| 2026-04-28 12:12 | 27.00479 | 45.78517 | 39868 ft | 388 kts | 275° |
| 2026-04-28 12:12 | 27.01340 | 45.72535 | 39873 ft | 388 kts | 275° |
| 2026-04-28 12:13 | 27.02201 | 45.66537 | 39869 ft | 389 kts | 275° |
| 2026-04-28 12:13 | 27.03052 | 45.60592 | 39878 ft | 387 kts | 275° |
| 2026-04-28 12:14 | 27.03904 | 45.54634 | 39871 ft | 386 kts | 275° |
| 2026-04-28 12:14 | 27.04757 | 45.48674 | 39877 ft | 386 kts | 275° |
| 2026-04-28 12:15 | 27.05579 | 45.42711 | 39879 ft | 386 kts | 274° |